AFR006 LFPG-KJFK
Flight info
| Callsign | AFR006 |
|---|---|
| Flight time | N/A |
| Altitude | 34000 |
| Route | ELCOB UT300 SENLO UN502 JSY DCT MUREL DCT GANTO DCT LARLA DCT RATKA/M082F340 DCT OMOKO DCT 4815N DCT 4820N DCT 4730N DCT 4640N DCT 4450N DCT JAROM N54G LOMPI/N0472F340 DCT KANNI DCT PLYMM PARCH3 |
| Aircraft | A388/J-SDE2E3GHIJ4J5M1P2RXYZ/LB1D1 |
Departure
| Time | 2026-05-01 08:45 |
|---|---|
| Airport | Charles de Gaulle International Airport (LFPG) |
Arrival
| Time | N/A |
|---|---|
| Airport | John F. Kennedy International Airport (KJFK) |
| Time | Latitude | Longitude | Altitude | Speed | Heading |
|---|---|---|---|---|---|
| 2026-05-01 08:15 | 49.00207 | 2.58644 | 367 ft | 0 kts | 262° |
| 2026-05-01 08:33 | 49.00208 | 2.58649 | 367 ft | 2 kts | 262° |
| 2026-05-01 08:34 | 49.00209 | 2.58668 | 365 ft | 2 kts | 262° |
| 2026-05-01 08:34 | 49.00211 | 2.58687 | 359 ft | 2 kts | 260° |
| 2026-05-01 08:34 | 49.00215 | 2.58704 | 365 ft | 2 kts | 246° |
| 2026-05-01 08:34 | 49.00225 | 2.58727 | 368 ft | 3 kts | 231° |
| 2026-05-01 08:35 | 49.00239 | 2.58745 | 368 ft | 3 kts | 211° |
| 2026-05-01 08:35 | 49.00257 | 2.58751 | 366 ft | 3 kts | 182° |
| 2026-05-01 08:35 | 49.00261 | 2.58750 | 365 ft | 0 kts | 175° |
| 2026-05-01 08:42 | 49.00259 | 2.58751 | 359 ft | 1 kts | 175° |
| 2026-05-01 08:42 | 49.00247 | 2.58751 | 367 ft | 2 kts | 182° |
| 2026-05-01 08:43 | 49.00227 | 2.58746 | 359 ft | 4 kts | 207° |
| 2026-05-01 08:43 | 49.00208 | 2.58715 | 368 ft | 1 kts | 264° |
| 2026-05-01 08:43 | 49.00207 | 2.58688 | 367 ft | 4 kts | 270° |
| 2026-05-01 08:43 | 49.00206 | 2.58644 | 365 ft | 4 kts | 263° |
| 2026-05-01 08:44 | 49.00206 | 2.58640 | 365 ft | 0 kts | 263° |
| 2026-05-01 08:45 | 49.00193 | 2.58471 | 2362 ft | 259 kts | 263° |
| 2026-05-01 08:45 | 49.00207 | 2.58644 | 2332 ft | 8 kts | 262° |
| 2026-05-01 08:53 | 49.00209 | 2.58661 | 359 ft | 2 kts | 262° |
| 2026-05-01 08:53 | 49.00210 | 2.58680 | 359 ft | 2 kts | 260° |
| 2026-05-01 08:53 | 49.00214 | 2.58698 | 359 ft | 2 kts | 250° |
| 2026-05-01 08:54 | 49.00220 | 2.58715 | 359 ft | 2 kts | 244° |
| 2026-05-01 08:54 | 49.00227 | 2.58731 | 359 ft | 2 kts | 232° |
| 2026-05-01 08:54 | 49.00236 | 2.58744 | 362 ft | 2 kts | 215° |
| 2026-05-01 08:54 | 49.00248 | 2.58750 | 359 ft | 2 kts | 194° |
| 2026-05-01 08:55 | 49.00260 | 2.58751 | 359 ft | 1 kts | 176° |
| 2026-05-01 08:55 | 49.00261 | 2.58751 | 359 ft | 0 kts | 176° |